Jewett, Illinois
Current Conditions -  °F | °C
As of 8:32 AM on Sunday 23 Nov 2014 (Local Time) from KMTO Reporting Station
Broken Clouds Broken Clouds  
Wind Chill: 50°   Ceiling: 1700
Heat Index: 50°   Visibility: 10mi
Dew Point: 43°   Wind: 15mph
Humidity: 77%   Direction: 160°SSE
Pressure: 29.77"   Gusts: 23mph
Location:  39.21°N, 88.25°W
Report Text: KMTO 231432Z AUTO 16013G20KT 10SM BKN017 10/06 A2977 RMK AO2 T01000061
Loading
Personal Weather Stations






























Interactive Weather Map New forecast layout! Learn more

10-Day Weather Forecast

Advertisements
Track Severe Weather on mobile